createdAt,value
2023-06-24T00:00:44.259Z,9.400
2023-06-24T00:02:44.652Z,9.000
2023-06-24T00:03:44.540Z,9.100
2023-06-24T00:04:44.039Z,10.000
2023-06-24T00:05:48.583Z,9.500
2023-06-24T00:06:44.154Z,9.500
2023-06-24T00:07:43.554Z,9.700
2023-06-24T00:08:43.976Z,10.000
2023-06-24T00:09:44.559Z,10.600
2023-06-24T00:10:44.572Z,9.500
2023-06-24T00:11:44.021Z,10.500
2023-06-24T00:12:44.429Z,9.200
2023-06-24T00:13:43.846Z,9.100
2023-06-24T00:14:44.265Z,9.400
2023-06-24T00:15:43.644Z,10.100
2023-06-24T00:16:44.266Z,9.200
2023-06-24T00:18:43.660Z,9.600
2023-06-24T00:19:44.078Z,9.800
2023-06-24T00:20:45.897Z,9.500
2023-06-24T00:21:44.350Z,9.900
2023-06-24T00:22:43.747Z,10.900
2023-06-24T00:23:44.132Z,10.100
2023-06-24T00:27:43.675Z,10.100
2023-06-24T00:28:44.128Z,9.000
2023-06-24T00:29:43.564Z,10.000
2023-06-24T00:30:44.324Z,10.200
2023-06-24T00:31:44.144Z,10.400
2023-06-24T00:34:44.126Z,10.000
2023-06-24T00:35:43.452Z,10.800
2023-06-24T00:36:43.865Z,9.900
2023-06-24T00:37:44.340Z,10.300
2023-06-24T00:38:43.773Z,8.900
2023-06-24T00:39:44.209Z,10.000
2023-06-24T00:40:43.871Z,10.200
2023-06-24T00:41:44.279Z,9.900
2023-06-24T00:42:43.660Z,8.800
2023-06-24T00:43:44.057Z,8.900
2023-06-24T00:44:44.465Z,9.200
2023-06-24T00:45:44.612Z,9.400
2023-06-24T00:46:44.032Z,9.000
2023-06-24T00:47:48.018Z,9.400
2023-06-24T00:48:43.485Z,9.600
2023-06-24T00:49:43.900Z,9.600
2023-06-24T00:50:44.435Z,9.600
2023-06-24T00:51:43.860Z,9.100
2023-06-24T00:52:44.245Z,8.900
2023-06-24T00:53:43.632Z,10.000
2023-06-24T00:54:43.969Z,9.700
2023-06-24T00:55:45.417Z,9.800
2023-06-24T00:56:43.973Z,10.400
2023-06-24T00:57:44.434Z,9.300
2023-06-24T00:58:43.821Z,10.500
2023-06-24T00:59:43.921Z,10.300
2023-06-24T01:00:44.376Z,10.300
2023-06-24T01:01:43.993Z,10.200
2023-06-24T01:02:43.729Z,9.600
2023-06-24T01:03:44.726Z,9.600
2023-06-24T01:04:44.334Z,8.800
2023-06-24T01:05:44.728Z,10.100
2023-06-24T01:06:44.304Z,9.700
2023-06-24T01:07:43.732Z,10.100
2023-06-24T01:08:44.148Z,9.100
2023-06-24T01:09:43.572Z,10.000
2023-06-24T01:10:44.004Z,9.900
2023-06-24T01:11:43.507Z,10.000
2023-06-24T01:12:44.121Z,9.700
2023-06-24T01:13:43.484Z,10.300
2023-06-24T01:14:43.824Z,9.800
2023-06-24T01:15:45.224Z,9.600
2023-06-24T01:16:43.592Z,10.400
2023-06-24T01:17:44.284Z,9.600
2023-06-24T01:18:43.758Z,9.300
2023-06-24T01:19:44.234Z,9.800
2023-06-24T01:20:43.625Z,10.100
2023-06-24T01:21:44.345Z,10.100
2023-06-24T01:22:43.723Z,9.900
2023-06-24T01:23:44.155Z,10.200
2023-06-24T01:24:43.573Z,10.200
2023-06-24T01:25:44.953Z,10.400
2023-06-24T01:26:44.502Z,9.800
2023-06-24T01:27:43.894Z,10.400
2023-06-24T01:28:44.346Z,9.700
2023-06-24T01:29:43.779Z,11.000
2023-06-24T01:30:44.491Z,10.100
2023-06-24T01:32:44.422Z,10.100
2023-06-24T01:33:45.022Z,10.600
2023-06-24T01:34:44.139Z,9.600
2023-06-24T01:35:44.172Z,9.900
2023-06-24T01:36:43.598Z,10.100
2023-06-24T01:37:43.982Z,10.300
2023-06-24T01:38:44.393Z,9.500
2023-06-24T01:39:43.767Z,10.200
2023-06-24T01:40:44.355Z,9.900
2023-06-24T01:41:43.740Z,10.300
2023-06-24T01:42:44.135Z,10.100
2023-06-24T01:43:43.595Z,10.100
2023-06-24T01:44:44.101Z,10.600
2023-06-24T01:45:43.935Z,11.000
2023-06-24T01:46:44.458Z,10.700
2023-06-24T01:47:44.027Z,10.300
2023-06-24T01:48:43.490Z,9.500
2023-06-24T01:49:43.828Z,10.200
2023-06-24T01:50:45.043Z,9.200
2023-06-24T01:51:44.441Z,9.900
2023-06-24T01:52:43.834Z,9.500
2023-06-24T01:53:44.423Z,10.200
2023-06-24T01:54:43.769Z,8.700
2023-06-24T01:55:45.039Z,9.500
2023-06-24T01:56:44.352Z,9.500
2023-06-24T01:57:43.728Z,8.500
2023-06-24T01:58:44.262Z,8.400
2023-06-24T02:00:44.285Z,10.600
2023-06-24T02:01:43.707Z,9.000
2023-06-24T02:02:44.625Z,9.100
2023-06-24T02:04:43.995Z,9.600
2023-06-24T02:05:46.263Z,8.700
2023-06-24T02:06:43.970Z,9.200
2023-06-24T02:07:44.358Z,10.100
2023-06-24T02:08:43.699Z,9.500
2023-06-24T02:09:44.151Z,9.700
2023-06-24T02:10:43.801Z,9.000
2023-06-24T02:11:44.225Z,10.000
2023-06-24T02:12:43.580Z,9.900
2023-06-24T02:13:44.110Z,10.200
2023-06-24T02:14:43.444Z,9.900
2023-06-24T02:15:44.113Z,9.400
2023-06-24T02:16:43.833Z,9.800
2023-06-24T02:17:44.532Z,9.500
2023-06-24T02:18:44.123Z,9.700
2023-06-24T02:20:43.960Z,9.700
2023-06-24T02:21:44.520Z,9.500
2023-06-24T02:22:43.860Z,10.100
2023-06-24T02:23:44.325Z,10.000
2023-06-24T02:24:43.908Z,9.700
2023-06-24T02:25:44.829Z,9.100
2023-06-24T02:26:44.314Z,9.800
2023-06-24T02:27:43.644Z,8.500
2023-06-24T02:28:44.033Z,8.900
2023-06-24T02:29:44.422Z,9.600
2023-06-24T02:30:44.084Z,9.700
2023-06-24T02:31:43.692Z,9.400
2023-06-24T02:32:44.384Z,10.100
2023-06-24T02:33:44.055Z,10.000
2023-06-24T02:34:43.434Z,10.300
2023-06-24T02:35:44.605Z,9.700
2023-06-24T02:36:44.011Z,9.500
2023-06-24T02:37:44.436Z,9.900
2023-06-24T02:38:43.869Z,9.500
2023-06-24T02:39:44.304Z,9.800
2023-06-24T02:40:43.795Z,9.200
2023-06-24T02:41:44.332Z,9.800
2023-06-24T02:42:43.788Z,9.800
2023-06-24T02:43:44.552Z,9.800
2023-06-24T02:44:44.224Z,10.000
2023-06-24T02:45:43.609Z,11.800
2023-06-24T02:46:44.552Z,11.000
2023-06-24T02:47:44.331Z,10.900
2023-06-24T02:48:43.868Z,12.200
2023-06-24T02:49:44.308Z,10.600
2023-06-24T02:50:43.844Z,11.500
2023-06-24T02:51:44.372Z,8.700
2023-06-24T02:53:44.241Z,9.900
2023-06-24T02:54:43.677Z,10.100
2023-06-24T02:55:44.620Z,10.400
2023-06-24T02:56:44.015Z,9.700
2023-06-24T02:57:44.488Z,9.700
2023-06-24T02:58:43.887Z,9.000
2023-06-24T02:59:44.323Z,9.500
2023-06-24T03:01:44.504Z,9.800
2023-06-24T03:02:44.498Z,8.400
2023-06-24T03:03:44.267Z,9.900
2023-06-24T03:06:43.887Z,9.900
2023-06-24T03:07:44.307Z,10.200
2023-06-24T03:08:43.680Z,10.200
2023-06-24T03:09:44.062Z,9.800
2023-06-24T03:10:43.547Z,9.600
2023-06-24T03:11:43.966Z,9.300
2023-06-24T03:12:44.425Z,10.100
2023-06-24T03:13:43.775Z,9.300
2023-06-24T03:14:44.170Z,10.400
2023-06-24T03:15:43.932Z,10.300
2023-06-24T03:16:44.456Z,10.600
2023-06-24T03:17:44.341Z,10.400
2023-06-24T03:18:43.785Z,10.500
2023-06-24T03:19:44.223Z,11.200
2023-06-24T03:21:44.048Z,12.100
2023-06-24T03:22:44.431Z,11.000
2023-06-24T03:23:43.824Z,10.900
2023-06-24T03:24:44.283Z,11.100
2023-06-24T03:25:44.069Z,11.200
2023-06-24T03:26:43.501Z,10.800
2023-06-24T03:27:43.881Z,11.100
2023-06-24T03:28:44.329Z,10.200
2023-06-24T03:29:43.733Z,9.900
2023-06-24T03:30:44.158Z,10.500
2023-06-24T03:31:43.687Z,10.600
2023-06-24T03:32:44.574Z,10.600
2023-06-24T03:33:44.275Z,11.500
2023-06-24T03:35:44.557Z,11.300
2023-06-24T03:36:44.012Z,11.600
2023-06-24T03:37:44.461Z,10.800
2023-06-24T03:38:43.821Z,10.700
2023-06-24T03:39:44.243Z,11.600
2023-06-24T03:40:43.763Z,10.800
2023-06-24T03:41:44.293Z,11.700
2023-06-24T03:42:43.756Z,10.600
2023-06-24T03:43:44.202Z,11.800
2023-06-24T03:44:43.611Z,11.100
2023-06-24T03:45:45.001Z,11.600
2023-06-24T03:46:43.532Z,11.500
2023-06-24T03:47:44.247Z,10.600
2023-06-24T03:48:43.858Z,11.500
2023-06-24T03:49:44.263Z,11.200
2023-06-24T03:50:43.660Z,11.000
2023-06-24T03:51:44.388Z,10.800
2023-06-24T03:52:43.817Z,11.200
2023-06-24T03:53:44.323Z,10.200
2023-06-24T03:54:43.660Z,10.600
2023-06-24T03:55:44.495Z,10.100
2023-06-24T03:56:43.880Z,10.800
2023-06-24T03:57:44.404Z,10.500
2023-06-24T03:58:43.855Z,10.700
2023-06-24T03:59:44.184Z,10.400
2023-06-24T04:00:43.523Z,11.300
2023-06-24T04:01:44.294Z,10.200
2023-06-24T04:02:44.059Z,10.000
2023-06-24T04:03:43.761Z,10.700
2023-06-24T04:04:44.320Z,10.900
2023-06-24T04:05:44.121Z,9.900
2023-06-24T04:06:43.733Z,10.200
2023-06-24T04:07:44.192Z,9.400
2023-06-24T04:08:44.198Z,9.900
2023-06-24T04:12:44.224Z,11.800
2023-06-24T04:13:43.543Z,10.900
2023-06-24T04:14:44.002Z,10.200
2023-06-24T04:15:44.659Z,10.900
2023-06-24T04:16:44.050Z,11.400
2023-06-24T04:17:43.797Z,11.000
2023-06-24T04:18:44.265Z,9.700
2023-06-24T04:19:43.656Z,9.400
2023-06-24T04:20:46.427Z,10.100
2023-06-24T04:21:43.908Z,10.000
2023-06-24T04:22:44.419Z,10.400
2023-06-24T04:23:43.845Z,10.100
2023-06-24T04:24:44.204Z,10.400
2023-06-24T04:25:43.873Z,9.400
2023-06-24T04:26:44.276Z,9.500
2023-06-24T04:27:43.758Z,9.400
2023-06-24T04:28:44.164Z,10.500
2023-06-24T04:29:43.509Z,10.200
2023-06-24T04:30:43.931Z,10.400
2023-06-24T04:31:44.803Z,9.500
2023-06-24T04:32:44.465Z,9.600
2023-06-24T04:33:44.018Z,10.500
2023-06-24T04:34:44.418Z,10.300
2023-06-24T04:35:44.426Z,8.400
2023-06-24T04:36:43.796Z,10.500
2023-06-24T04:37:44.294Z,9.400
2023-06-24T04:38:43.845Z,9.900
2023-06-24T04:39:44.610Z,9.600
2023-06-24T04:40:43.956Z,10.000
2023-06-24T04:41:44.334Z,9.900
2023-06-24T04:42:43.795Z,8.900
2023-06-24T04:44:43.979Z,9.200
2023-06-24T04:45:45.012Z,9.100
2023-06-24T04:46:43.907Z,9.900
2023-06-24T04:47:44.787Z,9.300
2023-06-24T04:48:44.403Z,10.200
2023-06-24T04:49:43.751Z,9.500
2023-06-24T04:50:45.151Z,9.500
2023-06-24T04:51:43.591Z,9.300
2023-06-24T04:52:44.054Z,9.600
2023-06-24T04:53:44.469Z,9.400
2023-06-24T04:54:43.897Z,10.100
2023-06-24T04:55:45.005Z,9.900
2023-06-24T04:56:44.537Z,9.300
2023-06-24T04:57:43.804Z,9.500
2023-06-24T04:58:44.220Z,9.400
2023-06-24T04:59:43.556Z,9.300
2023-06-24T05:00:44.653Z,9.300
2023-06-24T05:01:44.492Z,10.100
2023-06-24T05:02:44.008Z,9.800
2023-06-24T05:03:44.662Z,9.400
2023-06-24T05:04:44.232Z,9.900
2023-06-24T05:05:49.186Z,9.300
2023-06-24T05:06:43.823Z,9.300
2023-06-24T05:07:43.829Z,10.400
2023-06-24T05:08:44.314Z,10.200
2023-06-24T05:09:43.622Z,9.800
2023-06-24T05:10:44.081Z,10.100
2023-06-24T05:11:44.481Z,10.200
2023-06-24T05:12:43.902Z,9.800
2023-06-24T05:13:44.284Z,10.700
2023-06-24T05:14:44.093Z,10.900
2023-06-24T05:15:43.861Z,10.400
2023-06-24T05:16:44.239Z,11.100
2023-06-24T05:17:43.942Z,10.500
2023-06-24T05:18:44.460Z,11.300
2023-06-24T05:19:43.975Z,10.400
2023-06-24T05:20:44.455Z,10.100
2023-06-24T05:23:43.699Z,10.700
2023-06-24T05:24:47.198Z,10.800
2023-06-24T05:25:47.066Z,11.100
2023-06-24T05:26:46.489Z,10.500
2023-06-24T05:27:46.860Z,10.400
2023-06-24T05:28:47.309Z,10.900
2023-06-24T05:29:46.777Z,10.300
2023-06-24T05:31:46.670Z,10.900
2023-06-24T05:32:47.433Z,10.100
2023-06-24T05:33:46.984Z,11.500
2023-06-24T05:34:47.459Z,10.600
2023-06-24T05:38:44.408Z,10.200
2023-06-24T05:39:43.817Z,10.500
2023-06-24T05:40:44.277Z,11.100
2023-06-24T05:41:43.643Z,10.700
2023-06-24T05:42:44.146Z,10.600
2023-06-24T05:43:45.623Z,9.900
2023-06-24T05:44:44.039Z,10.300
2023-06-24T05:45:45.232Z,10.900
2023-06-24T05:47:44.044Z,9.100
2023-06-24T05:48:44.452Z,10.300
2023-06-24T05:49:43.841Z,10.000
2023-06-24T05:50:44.267Z,10.300
2023-06-24T05:51:43.721Z,10.000
2023-06-24T05:52:44.233Z,10.600
2023-06-24T05:53:43.573Z,9.700
2023-06-24T05:54:44.040Z,9.800
2023-06-24T05:55:45.251Z,10.000
2023-06-24T05:56:46.175Z,9.700
2023-06-24T05:57:43.602Z,9.600
2023-06-24T05:58:44.033Z,8.900
2023-06-24T05:59:44.448Z,9.700
2023-06-24T06:00:43.853Z,9.300
2023-06-24T06:01:43.531Z,9.000
2023-06-24T06:02:45.171Z,9.200
2023-06-24T06:03:44.017Z,8.700
2023-06-24T06:04:43.477Z,9.500
2023-06-24T06:05:44.250Z,9.300
2023-06-24T06:06:43.740Z,9.000
2023-06-24T06:07:44.380Z,9.100
2023-06-24T06:08:43.897Z,8.800
2023-06-24T06:09:44.412Z,8.900
2023-06-24T06:10:43.907Z,8.700
2023-06-24T06:11:44.325Z,9.200
2023-06-24T06:12:43.811Z,8.500
2023-06-24T06:13:44.351Z,8.900
2023-06-24T06:14:43.712Z,7.900
2023-06-24T06:15:44.569Z,9.500
2023-06-24T06:16:43.978Z,8.300
2023-06-24T06:17:44.770Z,9.300
2023-06-24T06:18:44.271Z,8.500
2023-06-24T06:22:43.814Z,9.100
2023-06-24T06:23:44.200Z,8.400
2023-06-24T06:24:43.541Z,8.800
2023-06-24T06:25:44.708Z,10.100
2023-06-24T06:26:44.307Z,8.500
2023-06-24T06:28:44.278Z,8.800
2023-06-24T06:29:43.910Z,8.900
2023-06-24T06:30:44.368Z,9.100
2023-06-24T06:31:44.188Z,8.800
2023-06-24T06:32:44.152Z,8.800
2023-06-24T06:33:43.953Z,9.100
2023-06-24T06:34:44.431Z,9.900
2023-06-24T06:35:44.585Z,8.900
2023-06-24T06:36:44.064Z,9.000
2023-06-24T06:37:44.472Z,9.100
2023-06-24T06:38:43.857Z,8.300
2023-06-24T06:39:44.282Z,8.700
2023-06-24T06:40:43.832Z,9.200
2023-06-24T06:41:44.265Z,8.400
2023-06-24T06:42:44.049Z,8.800
2023-06-24T06:43:44.416Z,8.800
2023-06-24T06:44:44.216Z,8.400
2023-06-24T06:45:45.002Z,9.200
2023-06-24T06:46:44.250Z,8.300
2023-06-24T06:47:44.599Z,8.900
2023-06-24T06:48:44.440Z,8.000
2023-06-24T06:51:43.776Z,8.600
2023-06-24T06:52:44.209Z,7.100
2023-06-24T06:53:43.642Z,8.000
2023-06-24T06:54:44.047Z,8.300
2023-06-24T06:55:44.284Z,8.800
2023-06-24T06:56:43.661Z,8.900
2023-06-24T06:57:45.033Z,7.300
2023-06-24T06:58:44.421Z,7.800
2023-06-24T07:01:44.276Z,8.100
2023-06-24T07:02:43.920Z,7.800
2023-06-24T07:03:44.835Z,7.500
2023-06-24T07:04:44.358Z,7.500
2023-06-24T07:05:46.135Z,8.000
2023-06-24T07:06:44.068Z,7.500
2023-06-24T07:07:44.137Z,7.700
2023-06-24T07:09:44.317Z,7.300
2023-06-24T07:10:44.397Z,7.700
2023-06-24T07:11:44.455Z,9.300
2023-06-24T07:12:43.925Z,8.700
2023-06-24T07:13:43.558Z,7.800
2023-06-24T07:14:43.995Z,8.000
2023-06-24T07:15:45.094Z,8.000
2023-06-24T07:16:43.523Z,7.700
2023-06-24T07:17:44.488Z,7.400
2023-06-24T07:18:44.124Z,7.300
2023-06-24T07:19:44.247Z,7.500
2023-06-24T07:20:47.680Z,7.900
2023-06-24T07:23:43.863Z,7.300
2023-06-24T07:24:44.271Z,7.800
2023-06-24T07:25:44.232Z,7.800
2023-06-24T07:26:43.818Z,7.800
2023-06-24T07:27:44.249Z,8.500
2023-06-24T07:28:45.137Z,8.200
2023-06-24T07:29:44.046Z,9.400
2023-06-24T07:30:44.484Z,7.900
2023-06-24T07:31:44.470Z,7.800
2023-06-24T07:32:44.432Z,8.300
2023-06-24T07:33:44.479Z,8.500
2023-06-24T07:34:43.876Z,8.400
2023-06-24T07:35:44.984Z,7.600
2023-06-24T07:36:44.271Z,7.300
2023-06-24T07:38:44.322Z,6.700
2023-06-24T07:39:44.072Z,7.100
2023-06-24T07:40:44.436Z,7.300
2023-06-24T07:41:43.828Z,7.400
2023-06-24T07:42:44.380Z,7.600
2023-06-24T07:43:44.466Z,6.600
2023-06-24T07:44:43.846Z,6.700
2023-06-24T07:45:45.132Z,7.500
2023-06-24T07:46:43.961Z,7.500
2023-06-24T07:47:45.829Z,7.300
2023-06-24T07:48:43.937Z,7.400
2023-06-24T07:49:44.312Z,7.700
2023-06-24T07:50:44.104Z,6.900
2023-06-24T07:51:43.441Z,7.100
2023-06-24T07:52:44.333Z,7.700
2023-06-24T07:53:44.404Z,7.200
2023-06-24T07:54:43.806Z,7.700
2023-06-24T07:55:44.918Z,7.100
2023-06-24T07:56:44.286Z,6.800
2023-06-24T07:57:43.679Z,7.000
2023-06-24T07:58:44.557Z,7.300
2023-06-24T07:59:44.050Z,7.600
2023-06-24T08:00:47.633Z,7.100
2023-06-24T08:01:44.071Z,7.900
2023-06-24T08:02:44.538Z,7.800
2023-06-24T08:03:44.651Z,7.500
2023-06-24T08:04:45.410Z,8.200
2023-06-24T08:05:44.878Z,8.400
2023-06-24T08:06:43.690Z,7.700
2023-06-24T08:07:44.188Z,7.600
2023-06-24T08:08:43.688Z,7.300
2023-06-24T08:09:44.218Z,7.400
2023-06-24T08:10:43.682Z,7.700
2023-06-24T08:11:44.089Z,8.000
2023-06-24T08:12:43.480Z,8.000
2023-06-24T08:13:43.930Z,8.100
2023-06-24T08:14:44.396Z,7.900
2023-06-24T08:15:48.123Z,9.200
2023-06-24T08:18:43.836Z,7.600
2023-06-24T08:19:44.256Z,7.500
2023-06-24T08:20:43.660Z,7.300
2023-06-24T08:21:44.180Z,6.800
2023-06-24T08:22:43.542Z,7.500
2023-06-24T08:23:44.028Z,7.800
2023-06-24T08:24:44.396Z,7.900
2023-06-24T08:25:44.373Z,7.300
2023-06-24T08:26:43.756Z,7.600
2023-06-24T08:27:44.236Z,7.400
2023-06-24T08:28:43.656Z,7.300
2023-06-24T08:29:44.082Z,7.500
2023-06-24T08:30:43.746Z,7.900
2023-06-24T08:31:44.261Z,7.600
2023-06-24T08:32:43.839Z,6.500
2023-06-24T08:33:44.469Z,7.500
2023-06-24T08:34:43.865Z,7.700
2023-06-24T08:35:45.007Z,7.100
2023-06-24T08:36:44.368Z,6.600
2023-06-24T08:37:43.769Z,7.300
2023-06-24T08:38:44.215Z,6.600
2023-06-24T08:39:43.616Z,6.500
2023-06-24T08:40:44.095Z,6.500
2023-06-24T08:41:45.157Z,6.800
2023-06-24T08:42:43.663Z,6.900
2023-06-24T08:43:44.159Z,6.000
2023-06-24T08:44:43.574Z,7.100
2023-06-24T08:45:45.020Z,6.900
2023-06-24T08:46:44.408Z,6.400
2023-06-24T08:47:44.845Z,7.100
2023-06-24T08:48:44.583Z,7.900
2023-06-24T08:49:44.552Z,7.300
2023-06-24T08:50:43.960Z,7.600
2023-06-24T08:51:44.476Z,7.000
2023-06-24T08:52:43.916Z,7.000
2023-06-24T08:53:44.275Z,6.800
2023-06-24T08:54:43.745Z,6.800
2023-06-24T08:55:44.698Z,6.700
2023-06-24T08:56:44.101Z,6.600
2023-06-24T08:57:43.487Z,6.200
2023-06-24T08:58:43.975Z,6.800
2023-06-24T08:59:44.435Z,6.800
2023-06-24T09:00:43.843Z,6.900
2023-06-24T09:01:44.572Z,7.800
2023-06-24T09:02:45.027Z,7.100
2023-06-24T09:03:44.292Z,7.400
2023-06-24T09:04:43.934Z,6.500
2023-06-24T09:05:44.974Z,7.200
2023-06-24T09:06:44.437Z,6.100
2023-06-24T09:07:43.928Z,5.200
2023-06-24T09:08:44.485Z,5.100
2023-06-24T09:09:43.894Z,4.800
2023-06-24T09:10:44.354Z,5.200
2023-06-24T09:11:43.779Z,5.900
2023-06-24T09:12:44.259Z,5.000
2023-06-24T09:13:43.671Z,4.700
2023-06-24T09:15:45.847Z,4.400
2023-06-24T09:16:44.233Z,4.900
2023-06-24T09:17:43.775Z,5.000
2023-06-24T09:18:44.332Z,5.200
2023-06-24T09:19:43.803Z,5.500
2023-06-24T09:20:44.364Z,5.700
2023-06-24T09:21:43.749Z,5.700
2023-06-24T09:22:44.146Z,5.600
2023-06-24T09:23:43.584Z,6.000
2023-06-24T09:24:44.038Z,6.400
2023-06-24T09:25:44.524Z,6.100
2023-06-24T09:26:43.942Z,5.900
2023-06-24T09:27:44.550Z,5.200
2023-06-24T09:28:43.996Z,5.500
2023-06-24T09:29:44.405Z,6.300
2023-06-24T09:30:43.825Z,6.100
2023-06-24T09:31:44.477Z,5.900
2023-06-24T09:32:44.359Z,6.100
2023-06-24T09:35:44.209Z,5.500
2023-06-24T09:36:43.584Z,5.800
2023-06-24T09:37:44.349Z,5.900
2023-06-24T09:38:43.807Z,5.200
2023-06-24T09:39:44.303Z,5.800
2023-06-24T09:40:43.833Z,5.300
2023-06-24T09:41:44.136Z,5.200
2023-06-24T09:42:43.502Z,5.500
2023-06-24T09:44:44.021Z,5.700
2023-06-24T09:45:45.371Z,5.800
2023-06-24T09:46:43.806Z,5.400
2023-06-24T09:47:44.544Z,5.200
2023-06-24T09:48:44.045Z,5.700
2023-06-24T09:49:44.452Z,5.900
2023-06-24T09:50:43.817Z,5.500
2023-06-24T09:51:44.191Z,6.000
2023-06-24T09:52:43.564Z,6.000
2023-06-24T09:53:44.006Z,5.600
2023-06-24T09:54:46.836Z,5.700
2023-06-24T09:55:44.795Z,5.700
2023-06-24T09:56:44.212Z,5.900
2023-06-24T09:57:43.615Z,5.500
2023-06-24T09:58:44.055Z,5.700
2023-06-24T09:59:43.542Z,5.100
2023-06-24T10:00:44.336Z,5.500
2023-06-24T10:01:43.975Z,5.400
2023-06-24T10:02:44.355Z,5.700
2023-06-24T10:03:44.964Z,6.000
2023-06-24T10:04:43.741Z,6.200
2023-06-24T10:05:44.659Z,6.100
2023-06-24T10:06:44.204Z,6.100
2023-06-24T10:07:43.699Z,5.400
2023-06-24T10:08:44.140Z,5.500
2023-06-24T10:09:43.535Z,5.500
2023-06-24T10:10:44.387Z,5.900
2023-06-24T10:11:43.845Z,6.100
2023-06-24T10:12:44.254Z,4.800
2023-06-24T10:13:43.689Z,5.800
2023-06-24T10:14:44.848Z,5.200
2023-06-24T10:15:44.269Z,5.100
2023-06-24T10:16:43.763Z,5.100
2023-06-24T10:17:44.399Z,5.700
2023-06-24T10:18:44.615Z,5.000
2023-06-24T10:19:44.122Z,5.100
2023-06-24T10:20:43.897Z,5.300
2023-06-24T10:21:44.293Z,5.100
2023-06-24T10:22:43.689Z,4.800
2023-06-24T10:23:44.088Z,4.700
2023-06-24T10:24:44.549Z,4.800
2023-06-24T10:25:43.933Z,5.100
2023-06-24T10:26:44.301Z,5.300
2023-06-24T10:27:46.028Z,5.100
2023-06-24T10:28:44.391Z,5.100
2023-06-24T10:29:44.684Z,4.500
2023-06-24T10:30:44.436Z,4.800
2023-06-24T10:32:43.803Z,5.100
2023-06-24T10:33:44.303Z,5.200
2023-06-24T10:34:43.757Z,5.100
2023-06-24T10:35:44.155Z,4.700
2023-06-24T10:36:43.526Z,5.400
2023-06-24T10:37:43.941Z,5.800
2023-06-24T10:38:44.282Z,5.300
2023-06-24T10:39:43.729Z,5.700
2023-06-24T10:40:44.245Z,4.900
2023-06-24T10:41:43.818Z,4.400
2023-06-24T10:42:44.329Z,4.900
2023-06-24T10:43:43.824Z,5.100
2023-06-24T10:44:44.368Z,5.500
2023-06-24T10:45:43.753Z,6.000
2023-06-24T10:46:44.489Z,6.700
2023-06-24T10:47:44.143Z,6.200
2023-06-24T10:48:43.615Z,5.500
2023-06-24T10:49:44.010Z,5.400
2023-06-24T10:50:44.773Z,5.300
2023-06-24T10:51:44.129Z,5.400
2023-06-24T10:52:43.540Z,4.300
2023-06-24T10:53:44.009Z,5.200
2023-06-24T10:54:44.378Z,5.000
2023-06-24T10:55:43.809Z,4.400
2023-06-24T10:56:44.217Z,4.500
2023-06-24T10:57:43.742Z,4.300
2023-06-24T10:58:44.263Z,3.700
2023-06-24T10:59:43.641Z,4.300
2023-06-24T11:00:44.650Z,4.300
2023-06-24T11:01:44.595Z,4.400
2023-06-24T11:02:44.608Z,4.600
2023-06-24T11:03:44.217Z,4.900
2023-06-24T11:05:44.171Z,5.300
2023-06-24T11:06:43.690Z,4.900
2023-06-24T11:07:44.231Z,4.100
2023-06-24T11:08:43.652Z,4.800
2023-06-24T11:09:44.052Z,4.400
2023-06-24T11:10:44.959Z,5.100
2023-06-24T11:11:44.329Z,4.400
2023-06-24T11:12:43.893Z,4.700
2023-06-24T11:13:44.382Z,4.400
2023-06-24T11:14:43.801Z,4.000
2023-06-24T11:15:47.787Z,4.100
2023-06-24T11:16:44.166Z,4.100
2023-06-24T11:17:43.836Z,4.200
2023-06-24T11:21:43.639Z,4.300
2023-06-24T11:22:44.167Z,4.900
2023-06-24T11:23:43.632Z,4.800
2023-06-24T11:24:44.366Z,4.800
2023-06-24T11:26:44.329Z,4.500
2023-06-24T11:27:43.696Z,4.700
2023-06-24T11:28:44.128Z,4.200
2023-06-24T11:29:43.553Z,4.800
2023-06-24T11:30:44.652Z,8.500
2023-06-24T11:31:44.095Z,4.200
2023-06-24T11:34:43.649Z,5.000
2023-06-24T11:35:44.128Z,5.300
2023-06-24T11:36:43.533Z,5.100
2023-06-24T11:37:43.929Z,4.500
2023-06-24T11:38:44.437Z,6.700
2023-06-24T11:39:43.875Z,4.700
2023-06-24T11:40:44.899Z,4.700
2023-06-24T11:41:44.282Z,5.100
2023-06-24T11:42:43.681Z,5.400
2023-06-24T11:43:44.314Z,4.400
2023-06-24T11:46:43.808Z,4.300
2023-06-24T11:47:44.541Z,4.400
2023-06-24T11:48:43.956Z,4.100
2023-06-24T11:49:44.389Z,4.500
2023-06-24T11:50:44.105Z,3.900
2023-06-24T11:51:43.424Z,3.900
2023-06-24T11:52:43.832Z,4.100
2023-06-24T11:53:44.186Z,3.600
2023-06-24T11:55:44.178Z,4.200
2023-06-24T11:56:43.566Z,4.200
2023-06-24T11:57:43.641Z,4.400
2023-06-24T11:58:44.001Z,4.200
2023-06-24T11:59:44.385Z,4.300
2023-06-24T12:00:44.817Z,4.000
2023-06-24T12:01:44.437Z,3.800
2023-06-24T12:02:44.674Z,4.100
2023-06-24T12:03:45.049Z,4.200
2023-06-24T12:05:43.653Z,4.300
2023-06-24T12:06:44.266Z,4.200
2023-06-24T12:07:43.772Z,4.100
2023-06-24T12:08:55.253Z,4.600
2023-06-24T12:10:45.698Z,4.400
2023-06-24T12:11:44.160Z,3.700
2023-06-24T12:12:43.537Z,4.400
2023-06-24T12:13:43.988Z,4.100
2023-06-24T12:14:44.448Z,3.800
2023-06-24T12:15:43.938Z,4.300
2023-06-24T12:16:44.337Z,4.200
2023-06-24T12:17:43.826Z,4.300
2023-06-24T12:18:44.388Z,4.400
2023-06-24T12:19:43.823Z,4.000
2023-06-24T12:20:50.409Z,4.200
2023-06-24T12:21:43.741Z,4.000
2023-06-24T12:22:44.191Z,4.200
2023-06-24T12:26:43.950Z,4.800
2023-06-24T12:27:44.373Z,4.200
2023-06-24T12:28:43.736Z,4.800
2023-06-24T12:29:44.219Z,4.700
2023-06-24T12:30:44.125Z,4.300
2023-06-24T12:31:43.753Z,4.600
2023-06-24T12:32:44.583Z,5.100
2023-06-24T12:34:43.684Z,4.500
2023-06-24T12:35:44.131Z,4.800
2023-06-24T12:36:43.617Z,4.800
2023-06-24T12:37:44.045Z,4.500
2023-06-24T12:38:43.576Z,4.400
2023-06-24T12:39:43.979Z,4.600
2023-06-24T12:40:44.771Z,4.600
2023-06-24T12:41:44.088Z,5.000
2023-06-24T12:42:44.534Z,5.300
2023-06-24T12:43:43.948Z,4.200
2023-06-24T12:44:44.326Z,4.900
2023-06-24T12:45:43.856Z,4.700
2023-06-24T12:46:44.266Z,4.800
2023-06-24T12:47:44.034Z,4.600
2023-06-24T12:48:43.498Z,4.700
2023-06-24T12:49:43.913Z,5.100
2023-06-24T12:50:45.210Z,4.400
2023-06-24T12:51:43.730Z,4.900
2023-06-24T12:52:44.413Z,4.900
2023-06-24T12:53:43.836Z,5.000
2023-06-24T12:54:44.300Z,5.100
2023-06-24T12:55:43.788Z,4.900
2023-06-24T12:56:44.257Z,5.400
2023-06-24T12:58:44.115Z,5.200
2023-06-24T12:59:43.491Z,5.600
2023-06-24T13:00:44.362Z,5.000
2023-06-24T13:01:44.066Z,6.000
2023-06-24T13:02:43.743Z,5.400
2023-06-24T13:03:44.566Z,4.800
2023-06-24T13:04:44.077Z,5.200
2023-06-24T13:05:43.530Z,5.400
2023-06-24T13:06:44.234Z,4.900
2023-06-24T13:07:43.797Z,5.300
2023-06-24T13:08:44.253Z,4.900
2023-06-24T13:09:43.751Z,4.700
2023-06-24T13:10:44.543Z,4.600
2023-06-24T13:11:44.020Z,4.900
2023-06-24T13:12:44.435Z,4.800
2023-06-24T13:13:43.784Z,4.700
2023-06-24T13:14:44.264Z,4.900
2023-06-24T13:16:44.144Z,4.600
2023-06-24T13:17:43.775Z,4.900
2023-06-24T13:18:44.301Z,4.600
2023-06-24T13:19:43.839Z,5.000
2023-06-24T13:20:44.570Z,4.900
2023-06-24T13:21:44.005Z,4.900
2023-06-24T13:22:44.414Z,4.700
2023-06-24T13:23:43.925Z,5.000
2023-06-24T13:24:44.361Z,4.700
2023-06-24T13:25:43.808Z,4.800
2023-06-24T13:26:44.448Z,4.600
2023-06-24T13:27:46.822Z,4.900
2023-06-24T13:28:44.178Z,5.000
2023-06-24T13:31:44.472Z,5.200
2023-06-24T13:32:44.147Z,4.700
2023-06-24T13:33:43.679Z,4.600
2023-06-24T13:34:44.139Z,4.900
2023-06-24T13:37:44.664Z,5.200
2023-06-24T13:38:44.060Z,4.800
2023-06-24T13:39:44.526Z,4.500
2023-06-24T13:40:43.999Z,5.100
2023-06-24T13:41:44.617Z,4.800
2023-06-24T13:42:44.027Z,4.300
2023-06-24T13:44:43.931Z,5.100
2023-06-24T13:45:44.326Z,4.900
2023-06-24T13:46:44.058Z,5.600
2023-06-24T13:47:43.713Z,5.000
2023-06-24T13:48:44.286Z,4.700
2023-06-24T13:49:43.641Z,4.600
2023-06-24T13:50:44.972Z,4.500
2023-06-24T13:51:44.460Z,4.900
2023-06-24T13:52:43.898Z,4.400
2023-06-24T13:53:44.306Z,4.600
2023-06-24T13:54:43.693Z,4.800
2023-06-24T13:55:44.295Z,4.200
2023-06-24T13:56:44.640Z,4.600